createdAt,value
2019-06-10T00:00:37.989Z,69.03
2019-06-10T00:05:41.364Z,67.60
2019-06-10T00:10:44.727Z,69.28
2019-06-10T00:15:46.632Z,69.98
2019-06-10T00:20:48.476Z,69.78
2019-06-10T00:25:51.554Z,70.13
2019-06-10T00:30:53.648Z,70.20
2019-06-10T00:35:55.523Z,68.46
2019-06-10T00:40:57.342Z,68.46
2019-06-10T00:46:00.722Z,70.92
2019-06-10T00:51:04.476Z,71.76
2019-06-10T00:56:08.335Z,70.92
2019-06-10T01:01:14.023Z,70.73
2019-06-10T01:06:15.079Z,70.61
2019-06-10T01:11:23.686Z,70.31
2019-06-10T01:16:21.642Z,69.87
2019-06-10T01:21:23.770Z,69.87
2019-06-10T01:26:25.575Z,70.81
2019-06-10T01:31:27.385Z,70.60
2019-06-10T01:36:31.210Z,70.00
2019-06-10T01:41:32.964Z,71.57
2019-06-10T01:46:34.809Z,72.02
2019-06-10T01:51:36.686Z,71.85
2019-06-10T01:56:40.720Z,71.25
2019-06-10T02:01:56.430Z,72.73
2019-06-10T02:06:58.345Z,71.95
2019-06-10T02:12:02.220Z,71.45
2019-06-10T02:17:04.062Z,70.17
2019-06-10T02:22:05.912Z,70.17
2019-06-10T02:27:07.713Z,70.81
2019-06-10T02:32:17.260Z,72.06
2019-06-10T02:37:17.019Z,71.97
2019-06-10T02:42:30.628Z,72.45
2019-06-10T02:47:33.635Z,70.89
2019-06-10T02:52:38.241Z,71.58
2019-06-10T02:57:40.052Z,71.58
2019-06-10T03:02:44.547Z,72.45
2019-06-10T03:07:44.602Z,74.44
2019-06-10T03:12:46.495Z,73.75
2019-06-10T03:17:49.417Z,74.17
2019-06-10T03:22:52.517Z,74.10
2019-06-10T03:27:54.632Z,73.78
2019-06-10T03:32:56.413Z,74.68
2019-06-10T03:37:58.226Z,73.75
2019-06-10T03:43:02.500Z,75.73
2019-06-10T03:48:03.866Z,75.92
2019-06-10T03:53:05.699Z,75.71
2019-06-10T03:58:07.565Z,78.03
2019-06-10T04:03:09.376Z,77.25
2019-06-10T04:08:12.570Z,76.82
2019-06-10T04:13:14.469Z,76.43
2019-06-10T04:18:17.769Z,76.40
2019-06-10T04:23:19.878Z,76.00
2019-06-10T04:28:24.055Z,76.02
2019-06-10T04:33:27.055Z,76.54
2019-06-10T04:38:29.357Z,75.78
2019-06-10T04:43:32.546Z,76.00
2019-06-10T04:48:35.887Z,76.90
2019-06-10T04:53:40.323Z,76.90
2019-06-10T04:58:43.228Z,76.16
2019-06-10T05:03:45.300Z,76.65
2019-06-10T05:08:47.193Z,76.14
2019-06-10T05:13:49.089Z,75.57
2019-06-10T05:18:54.110Z,74.63
2019-06-10T05:23:54.668Z,74.98
2019-06-10T05:28:56.529Z,75.18
2019-06-10T05:33:59.427Z,75.56
2019-06-10T05:39:02.725Z,75.76
2019-06-10T05:44:05.061Z,73.81
2019-06-10T05:49:06.977Z,73.81
2019-06-10T05:54:08.870Z,74.34
2019-06-10T05:59:12.100Z,71.52
2019-06-10T06:04:14.203Z,68.39
2019-06-10T06:09:16.081Z,69.57
2019-06-10T06:14:17.978Z,67.87
2019-06-10T06:19:19.870Z,69.00
2019-06-10T06:24:22.085Z,67.44
2019-06-10T06:29:24.035Z,67.49
2019-06-10T06:34:26.880Z,66.99
2019-06-10T06:39:29.331Z,68.25
2019-06-10T06:44:33.668Z,66.05
2019-06-10T06:49:37.075Z,65.30
2019-06-10T06:54:39.491Z,62.73
2019-06-10T06:59:43.223Z,58.21
2019-06-10T07:04:48.490Z,57.78
2019-06-10T07:09:52.748Z,54.57
2019-06-10T07:14:54.604Z,46.27
2019-06-10T07:19:57.640Z,47.79
2019-06-10T07:25:03.438Z,43.06
2019-06-10T07:30:15.670Z,45.34
2019-06-10T07:35:17.679Z,43.76
2019-06-10T07:40:19.526Z,42.17
2019-06-10T07:45:23.441Z,41.63
2019-06-10T07:50:25.440Z,42.96
2019-06-10T07:55:28.187Z,40.99
2019-06-10T08:00:30.007Z,43.39
2019-06-10T08:05:32.406Z,41.35
2019-06-10T08:10:35.534Z,43.12
2019-06-10T08:15:37.566Z,42.87
2019-06-10T08:20:45.414Z,42.67
2019-06-10T08:25:53.651Z,41.67
2019-06-10T08:30:53.313Z,41.68
2019-06-10T08:36:00.204Z,43.07
2019-06-10T08:40:59.110Z,45.11
2019-06-10T08:46:02.544Z,44.50
2019-06-10T08:51:04.782Z,43.61
2019-06-10T08:56:07.181Z,42.89
2019-06-10T09:01:09.155Z,43.77
2019-06-10T09:06:12.768Z,40.97
2019-06-10T09:11:14.737Z,41.70
2019-06-10T09:16:19.368Z,40.96
2019-06-10T09:21:22.296Z,40.35
2019-06-10T09:26:23.988Z,40.56
2019-06-10T09:31:25.876Z,41.28
2019-06-10T09:36:27.662Z,42.55
2019-06-10T09:41:37.345Z,41.52
2019-06-10T09:46:34.157Z,39.15
2019-06-10T09:51:35.983Z,40.96
2019-06-10T09:56:37.820Z,41.55
2019-06-10T10:01:40.882Z,39.39
2019-06-10T10:06:46.657Z,39.96
2019-06-10T10:11:48.809Z,39.48
2019-06-10T10:16:58.687Z,39.70
2019-06-10T10:21:58.207Z,39.88
2019-06-10T10:27:01.873Z,39.73
2019-06-10T10:32:02.781Z,40.46
2019-06-10T10:37:05.725Z,41.95
2019-06-10T10:42:07.595Z,41.01
2019-06-10T10:47:09.389Z,41.46
2019-06-10T10:52:12.963Z,40.74
2019-06-10T10:57:15.044Z,40.07
2019-06-10T11:02:16.896Z,39.57
2019-06-10T11:07:18.779Z,40.00
2019-06-10T11:12:22.962Z,41.65
2019-06-10T11:17:25.817Z,44.49
2019-06-10T11:22:27.980Z,42.51
2019-06-10T11:27:30.838Z,39.49
2019-06-10T11:32:33.582Z,39.79
2019-06-10T11:37:35.876Z,40.06
2019-06-10T11:42:37.694Z,38.73
2019-06-10T11:47:42.605Z,38.29
2019-06-10T11:52:44.594Z,37.98
2019-06-10T11:57:47.774Z,39.83
2019-06-10T12:02:50.912Z,40.29
2019-06-10T12:07:57.591Z,41.17
2019-06-10T12:13:00.556Z,41.39
2019-06-10T12:18:07.885Z,40.97
2019-06-10T12:23:05.490Z,39.95
2019-06-10T12:28:07.997Z,40.05
2019-06-10T12:33:20.015Z,38.17
2019-06-10T12:38:18.590Z,38.31
2019-06-10T12:43:23.196Z,37.29
2019-06-10T12:48:24.921Z,39.42
2019-06-10T12:53:27.228Z,39.31
2019-06-10T12:58:30.169Z,42.38
2019-06-10T13:03:33.653Z,40.54
2019-06-10T13:08:36.678Z,40.36
2019-06-10T13:13:39.298Z,42.68
2019-06-10T14:03:53.801Z,65.02
2019-06-10T14:08:56.155Z,63.25
2019-06-10T14:13:59.048Z,57.35
2019-06-10T14:19:02.083Z,57.95
2019-06-10T14:24:06.088Z,54.91
2019-06-10T14:29:09.246Z,53.91
2019-06-10T14:34:16.334Z,54.22
2019-06-10T14:39:16.059Z,53.92
2019-06-10T14:44:18.167Z,54.61
2019-06-10T14:49:22.274Z,55.13
2019-06-10T14:54:24.111Z,55.58
2019-06-10T14:59:26.012Z,54.93
2019-06-10T15:04:27.898Z,58.83
2019-06-10T15:09:29.825Z,59.99
2019-06-10T15:14:32.363Z,60.11
2019-06-10T15:19:34.411Z,61.12
2019-06-10T15:24:36.268Z,59.74
2019-06-10T15:29:38.179Z,60.75
2019-06-10T15:34:40.139Z,59.69
2019-06-10T15:39:42.976Z,56.67
2019-06-10T15:44:52.297Z,56.88
2019-06-10T15:49:48.990Z,54.91
2019-06-10T15:54:52.565Z,55.02
2019-06-10T15:59:54.709Z,54.91
2019-06-10T16:04:56.602Z,55.90
2019-06-10T16:09:58.593Z,55.46
2019-06-10T16:15:02.638Z,55.08
2019-06-10T16:20:09.558Z,55.05
2019-06-10T16:25:12.659Z,56.63
2019-06-10T16:30:42.797Z,57.57
2019-06-10T16:35:45.076Z,57.10
2019-06-10T16:46:52.698Z,55.36
2019-06-10T16:51:54.851Z,55.18
2019-06-10T16:56:56.762Z,57.79
2019-06-10T17:01:58.942Z,60.51
2019-06-10T17:07:03.939Z,60.04
2019-06-10T17:12:06.162Z,59.97
2019-06-10T17:17:08.563Z,59.41
2019-06-10T17:22:12.630Z,59.77
2019-06-10T17:27:14.487Z,60.65
2019-06-10T17:32:16.548Z,61.30
2019-06-10T17:37:20.309Z,60.96
2019-06-10T17:42:27.831Z,61.64
2019-06-10T17:47:27.717Z,61.80
2019-06-10T17:52:32.366Z,61.34
2019-06-10T17:57:35.856Z,62.31
2019-06-10T18:02:39.369Z,62.08
2019-06-10T18:07:41.958Z,62.42
2019-06-10T18:12:43.848Z,62.32
2019-06-10T18:17:45.983Z,62.23
2019-06-10T18:22:48.065Z,63.63
2019-06-10T18:27:52.316Z,63.29
2019-06-10T18:32:55.179Z,63.53
2019-06-10T18:37:57.705Z,64.43
2019-06-10T18:42:59.963Z,63.92
2019-06-10T18:48:02.346Z,64.08
2019-06-10T18:53:04.479Z,64.41
2019-06-10T18:58:07.035Z,64.93
2019-06-10T19:03:13.154Z,64.98
2019-06-10T19:08:12.839Z,64.87
2019-06-10T19:13:14.788Z,65.29
2019-06-10T19:18:16.719Z,65.22
2019-06-10T19:39:49.305Z,70.00
2019-06-10T19:44:45.951Z,70.21
2019-06-10T19:49:47.902Z,71.77
2019-06-10T19:54:49.820Z,73.91
2019-06-10T20:00:07.246Z,74.33
2019-06-10T20:04:55.798Z,73.33
2019-06-10T20:09:57.745Z,74.89
2019-06-10T20:15:02.265Z,73.01
2019-06-10T20:20:05.925Z,74.28
2019-06-10T20:25:07.843Z,74.73
2019-06-10T20:30:24.354Z,75.82
2019-06-10T20:35:15.479Z,74.38
2019-06-10T20:40:17.477Z,74.41
2019-06-10T20:45:19.403Z,74.41
2019-06-10T20:50:21.611Z,75.25
2019-06-10T20:55:37.653Z,76.08
2019-06-10T21:00:36.337Z,73.80
2019-06-10T21:05:41.627Z,78.04
2019-06-10T21:10:46.321Z,78.04
2019-06-10T21:15:50.325Z,76.64
2019-06-10T21:20:55.970Z,77.70
2019-06-10T21:25:54.970Z,77.70
2019-06-10T21:30:58.786Z,76.24
2019-06-10T21:36:03.540Z,75.32
2019-06-10T21:41:04.659Z,74.71
2019-06-10T21:46:06.639Z,73.31
2019-06-10T21:51:08.408Z,74.65
2019-06-10T21:56:12.361Z,73.86
2019-06-10T22:01:16.885Z,72.42
2019-06-10T22:06:17.909Z,74.44
2019-06-10T22:11:19.827Z,75.16
2019-06-10T22:16:22.642Z,73.61
2019-06-10T22:21:24.675Z,74.67
2019-06-10T22:26:26.490Z,74.91
2019-06-10T22:31:28.315Z,75.15
2019-06-10T22:36:32.564Z,74.48
2019-06-10T22:41:34.047Z,74.60
2019-06-10T22:46:35.873Z,75.35
2019-06-10T22:51:37.769Z,75.08
2019-06-10T22:56:39.645Z,74.62
2019-06-10T23:01:42.389Z,75.33
2019-06-10T23:06:44.308Z,75.09
2019-06-10T23:11:46.192Z,75.38
2019-06-10T23:16:48.850Z,75.00
2019-06-10T23:21:51.807Z,74.82
2019-06-10T23:26:55.899Z,74.87
2019-06-10T23:32:03.465Z,74.87
2019-06-10T23:37:01.739Z,75.33
2019-06-10T23:42:04.305Z,75.11
2019-06-10T23:47:06.443Z,75.54
2019-06-10T23:52:08.352Z,75.04
2019-06-10T23:57:10.167Z,73.77
